Aviation Digital Data Service (ADDS)

Output produced by TAFs form (1119 UTC 24 April 2017)
found at http://www.aviationweather.gov/adds/tafs/
 
METAR text: RJSF 241100Z 13007KT 9999 FEW040 09/06 Q1027
Conditions at: RJSF (FUKUSHIMA ARPT , JP) observed 1100 UTC 24 April 2017
Temperature: 9.0°C (48°F)
Dewpoint: 6.0°C (43°F) [RH = 81%]
Pressure (altimeter): 30.32 inches Hg (1027.0 mb)
Winds: from the SE (130 degrees) at 8 MPH (7 knots; 3.6 m/s)
Visibility: 6 or more miles (10+ km)
Ceiling: at least 12,000 feet AGL
Clouds: few clouds at 4000 feet AGL
Weather: no significant weather observed at this time

Forecast for: RJSF (FUKUSHIMA ARPT , JP)
Text: TAF RJSF 240505Z 2406/2512 19007KT 9999 FEW030
Forecast period: 0600 UTC 24 April 2017 to 1200 UTC 25 April 2017
Forecast type: FROM: standard forecast or significant change
Winds: from the S (190 degrees) at 8 MPH (7 knots; 3.6 m/s)
Visibility: 6 or more miles (10+ km)
Clouds: few clouds at 3000 feet AGL
Weather: no significant weather forecast for this period